Skip Navigation Links Skip Navigation Links

Current Weather

Metropolitan Oakland Intl, Oakland, Calif.

For information only: do not use for flight planning or navigation.
Latest weather
Observation time Thursday, December 3, 2020 10:53 PM PST
Local time Thursday, December 3, 2020 11:16 PM PST
Flight conditions Visual Meteorological Conditions
Winds
Wind direction South-Southeast (150°)
Wind speed 3 mph
Visibility 6 mi.
Present weather haze
Sky condition
Ceiling unlimited
Cloud layer scattered clouds 20,000 ft.
Temperature 50°F
Dewpoint 42°F
Altimeter 30.32 in.Hg
Derived measurements
Relative humidity 74%
Wind chill 49°F
Density altitude -915 ft.
Sea-level pressure 30.32 in.Hg
Remarks
Automated weather observing station with precipitation discriminator.
METAR KOAK 040653Z 15003KT 6SM HZ SCT200 10/06 A3032 RMK AO2 SLP268 T01000056

Settings

Location code

InnerDrive.Weather 4.0.6770.0 Release CLR 4.0.30319.42000
Copyright ©2018 Inner Drive Technology. All rights reserved. Portions Copyright ©1986-2018 David Braverman.

Find weather

Site navigation


Skip Navigation Links

Place info

Page info

PayPal - The safer, easier way to pay online!

Return home.

Copyright ©2020 Inner Drive Technology. Purveyors of fine, hand-crafted computer software. Page printed 2020-12-04T07:16:50 UTC.